Main page
METAR-TAF:

METAR-TAF

Airports :

Reims – Prunay Aerodrome

Reims, France

latitude: 49-12-31N, longitude: 004-09-24E, elevation: 95 m

Current weather observation

The report was made 23 minutes ago, at 15:30 UTC
Wind 9 kt from the East/Southeast
Temperature 16°C
Humidity 39%
Pressure 1020 hPa
Visibility 10 km or more
no clouds below 1500 m and no cumulonimbus

METAR: LFQA 041530Z AUTO 11009KT CAVOK 16/02 Q1020

Time: 17:53 (15:53 UTC)


TAF: missing

Weather observations and forecasts of more than 4000 airports (METAR and TAF reports).

The available stations are represented by yellow and red dots on the map.

Hover mouse over dot to see the name of the station.

Then click to see weather observations and forecasts.

To change the map : click on the green buttons with a black cross to zoom in, on the green button with a dash to zoom out, or on the green arrows for adjacent maps.


METAR-TAF: